createdAt,value
2017-12-23T00:01:10.053Z,27.90
2017-12-23T00:03:14.394Z,28.43
2017-12-23T00:05:18.640Z,26.93
2017-12-23T00:07:24.423Z,22.67
2017-12-23T00:09:38.739Z,27.10
2017-12-23T00:11:42.203Z,26.00
2017-12-23T00:13:46.421Z,26.60
2017-12-23T00:15:49.937Z,24.33
2017-12-23T00:17:53.822Z,24.67
2017-12-23T00:19:57.899Z,27.17
2017-12-23T00:22:01.326Z,28.13
2017-12-23T00:24:04.792Z,24.27
2017-12-23T00:26:10.019Z,26.07
2017-12-23T00:28:16.187Z,26.50
2017-12-23T00:30:20.448Z,29.00
2017-12-23T00:32:23.878Z,28.90
2017-12-23T00:34:32.294Z,28.43
2017-12-23T00:36:35.775Z,29.83
2017-12-23T00:38:39.188Z,31.67
2017-12-23T00:40:42.683Z,33.80
2017-12-23T00:42:46.898Z,36.77
2017-12-23T00:44:51.092Z,33.70
2017-12-23T00:46:54.555Z,31.80
2017-12-23T00:48:57.967Z,38.77
2017-12-23T00:51:01.394Z,35.90
2017-12-23T00:53:04.837Z,31.50
2017-12-23T00:55:08.248Z,35.23
2017-12-23T00:57:11.694Z,31.63
2017-12-23T00:59:15.896Z,32.00
2017-12-23T01:01:19.307Z,28.97
2017-12-23T01:03:22.783Z,29.53
2017-12-23T01:05:26.203Z,29.70
2017-12-23T01:07:29.644Z,28.80
2017-12-23T01:09:33.889Z,27.90
2017-12-23T01:11:38.104Z,28.07
2017-12-23T01:13:42.317Z,30.20
2017-12-23T01:15:46.504Z,27.43
2017-12-23T01:17:49.917Z,28.40
2017-12-23T01:19:53.357Z,29.10
2017-12-23T01:21:56.774Z,27.40
2017-12-23T01:24:00.242Z,28.00
2017-12-23T01:26:03.650Z,28.60
2017-12-23T01:28:07.093Z,27.53
2017-12-23T01:30:11.306Z,28.27
2017-12-23T01:32:15.495Z,26.00
2017-12-23T01:34:19.751Z,28.77
2017-12-23T01:36:23.186Z,27.30
2017-12-23T01:38:26.630Z,27.57
2017-12-23T01:40:30.896Z,28.40
2017-12-23T01:42:34.334Z,25.70
2017-12-23T01:44:38.543Z,29.73
2017-12-23T01:46:41.997Z,27.70
2017-12-23T01:48:48.355Z,25.83
2017-12-23T01:50:51.785Z,25.90
2017-12-23T01:52:55.250Z,25.97
2017-12-23T01:54:58.775Z,28.07
2017-12-23T01:57:02.190Z,26.03
2017-12-23T01:59:05.602Z,26.60
2017-12-23T02:01:09.081Z,26.03
2017-12-23T02:03:12.499Z,27.57
2017-12-23T02:05:15.975Z,24.00
2017-12-23T02:07:19.421Z,25.17
2017-12-23T02:09:22.865Z,24.90
2017-12-23T02:11:26.359Z,24.30
2017-12-23T02:13:29.800Z,25.93
2017-12-23T02:15:33.244Z,24.20
2017-12-23T02:17:36.711Z,25.50
2017-12-23T02:19:40.897Z,26.17
2017-12-23T02:21:44.334Z,24.47
2017-12-23T02:23:48.505Z,25.70
2017-12-23T02:25:51.930Z,23.13
2017-12-23T02:27:55.417Z,25.30
2017-12-23T02:29:59.610Z,24.27
2017-12-23T02:32:03.869Z,25.10
2017-12-23T02:34:07.321Z,25.67
2017-12-23T02:36:11.534Z,24.50
2017-12-23T02:38:15.863Z,25.90
2017-12-23T02:40:20.048Z,23.57
2017-12-23T02:42:24.340Z,26.40
2017-12-23T02:44:27.782Z,24.90
2017-12-23T02:46:31.215Z,26.17
2017-12-23T02:48:34.675Z,24.33
2017-12-23T02:50:38.891Z,26.03
2017-12-23T02:52:42.315Z,25.73
2017-12-23T02:54:45.792Z,24.43
2017-12-23T02:56:49.204Z,24.93
2017-12-23T02:58:52.686Z,24.63
2017-12-23T03:00:56.116Z,25.13
2017-12-23T03:02:59.563Z,24.37
2017-12-23T03:05:02.986Z,25.43
2017-12-23T03:07:06.479Z,22.77
2017-12-23T03:09:10.694Z,23.50
2017-12-23T03:11:14.139Z,21.17
2017-12-23T03:13:17.600Z,22.23
2017-12-23T03:15:21.048Z,23.50
2017-12-23T03:17:24.460Z,21.87
2017-12-23T03:19:28.735Z,22.77
2017-12-23T03:21:32.915Z,22.93
2017-12-23T03:23:37.106Z,21.97
2017-12-23T03:25:40.575Z,21.70
2017-12-23T03:27:44.019Z,23.70
2017-12-23T03:29:47.498Z,21.80
2017-12-23T03:31:50.917Z,21.90
2017-12-23T03:33:54.326Z,20.87
2017-12-23T03:35:57.795Z,21.60
2017-12-23T03:38:01.216Z,21.60
2017-12-23T03:40:04.670Z,23.40
2017-12-23T03:42:08.104Z,23.07
2017-12-23T03:44:12.276Z,21.00
2017-12-23T03:46:15.760Z,24.50
2017-12-23T03:48:19.207Z,22.90
2017-12-23T03:50:22.646Z,23.63
2017-12-23T03:52:26.117Z,24.27
2017-12-23T03:54:30.154Z,25.37
2017-12-23T03:56:33.596Z,24.60
2017-12-23T03:58:37.040Z,24.53
2017-12-23T04:00:40.442Z,23.83
2017-12-23T04:02:43.915Z,22.67
2017-12-23T04:04:47.372Z,22.30
2017-12-23T04:06:50.828Z,23.20
2017-12-23T04:08:54.273Z,23.53
2017-12-23T04:10:57.701Z,23.00
2017-12-23T04:13:01.186Z,24.20
2017-12-23T04:15:04.596Z,23.30
2017-12-23T04:17:08.822Z,24.77
2017-12-23T04:19:12.996Z,24.27
2017-12-23T04:21:16.405Z,25.90
2017-12-23T04:23:19.855Z,22.80
2017-12-23T04:25:23.247Z,23.70
2017-12-23T04:27:26.698Z,24.63
2017-12-23T04:29:30.102Z,24.30
2017-12-23T04:31:34.301Z,22.10
2017-12-23T04:33:37.754Z,24.33
2017-12-23T04:35:41.182Z,23.67
2017-12-23T04:37:45.398Z,22.53
2017-12-23T04:39:48.795Z,23.33
2017-12-23T04:41:53.624Z,25.67
2017-12-23T04:43:57.855Z,21.40
2017-12-23T04:46:01.267Z,23.03
2017-12-23T04:48:04.714Z,22.40
2017-12-23T04:50:08.153Z,22.33
2017-12-23T04:52:11.556Z,22.27
2017-12-23T04:54:14.985Z,21.93
2017-12-23T04:56:18.390Z,21.27
2017-12-23T04:58:22.578Z,22.13
2017-12-23T05:00:26.014Z,22.60
2017-12-23T05:02:29.453Z,23.43
2017-12-23T05:04:32.903Z,21.00
2017-12-23T05:06:36.328Z,22.70
2017-12-23T05:08:39.769Z,23.17
2017-12-23T05:10:43.973Z,22.50
2017-12-23T05:12:48.151Z,21.93
2017-12-23T05:14:52.417Z,23.73
2017-12-23T05:16:55.866Z,24.10
2017-12-23T05:18:59.297Z,24.07
2017-12-23T05:21:03.493Z,24.93
2017-12-23T05:23:06.914Z,23.93
2017-12-23T05:25:10.431Z,23.40
2017-12-23T05:27:13.861Z,23.30
2017-12-23T05:29:17.301Z,25.40
2017-12-23T05:31:20.767Z,23.20
2017-12-23T05:33:24.940Z,24.60
2017-12-23T05:35:29.322Z,22.73
2017-12-23T05:37:33.587Z,24.70
2017-12-23T05:39:37.778Z,27.00
2017-12-23T05:41:41.240Z,25.80
2017-12-23T05:43:44.697Z,23.40
2017-12-23T05:45:48.110Z,24.90
2017-12-23T05:47:52.341Z,22.53
2017-12-23T05:49:55.760Z,22.60
2017-12-23T05:51:59.233Z,22.93
2017-12-23T05:54:02.705Z,24.60
2017-12-23T05:56:06.118Z,22.50
2017-12-23T05:58:09.571Z,24.30
2017-12-23T06:00:13.761Z,24.63
2017-12-23T06:02:17.989Z,26.00
2017-12-23T06:04:22.224Z,24.47
2017-12-23T06:06:25.629Z,23.40
2017-12-23T06:08:29.099Z,24.53
2017-12-23T06:10:33.305Z,22.87
2017-12-23T06:12:37.533Z,25.37
2017-12-23T06:14:40.940Z,21.47
2017-12-23T06:16:44.359Z,22.50
2017-12-23T06:18:47.840Z,22.33
2017-12-23T06:20:51.262Z,23.83
2017-12-23T06:22:54.660Z,21.93
2017-12-23T06:24:58.111Z,22.33
2017-12-23T06:27:01.525Z,22.43
2017-12-23T06:29:04.968Z,20.67
2017-12-23T06:31:09.161Z,19.90
2017-12-23T06:33:12.579Z,22.13
2017-12-23T06:35:16.051Z,21.10
2017-12-23T06:37:19.475Z,18.67
2017-12-23T06:39:22.942Z,19.90
2017-12-23T06:41:26.354Z,19.90
2017-12-23T06:43:29.758Z,18.17
2017-12-23T06:45:33.203Z,20.83
2017-12-23T06:47:38.304Z,20.10
2017-12-23T06:49:42.571Z,19.53
2017-12-23T06:51:46.741Z,22.40
2017-12-23T06:53:51.050Z,20.30
2017-12-23T06:55:54.543Z,20.37
2017-12-23T06:57:58.042Z,20.93
2017-12-23T07:00:01.533Z,20.73
2017-12-23T07:02:05.378Z,19.00
2017-12-23T07:04:08.818Z,19.60
2017-12-23T07:06:12.252Z,18.70
2017-12-23T07:08:15.692Z,18.23
2017-12-23T07:10:19.143Z,18.97
2017-12-23T07:12:22.566Z,20.10
2017-12-23T07:14:26.046Z,18.50
2017-12-23T07:16:30.251Z,19.20
2017-12-23T07:18:34.432Z,20.30
2017-12-23T07:20:37.844Z,18.77
2017-12-23T07:22:42.090Z,19.17
2017-12-23T07:24:45.530Z,19.97
2017-12-23T07:26:48.977Z,18.33
2017-12-23T07:28:52.406Z,17.80
2017-12-23T07:30:55.883Z,20.00
2017-12-23T07:32:59.296Z,19.07
2017-12-23T07:35:02.720Z,21.60
2017-12-23T07:37:06.935Z,19.27
2017-12-23T07:39:10.363Z,18.37
2017-12-23T07:41:13.805Z,18.07
2017-12-23T07:43:17.250Z,19.57
2017-12-23T07:45:20.718Z,18.23
2017-12-23T07:47:24.215Z,17.10
2017-12-23T07:49:28.415Z,18.93
2017-12-23T07:51:32.751Z,18.57
2017-12-23T07:53:36.962Z,19.20
2017-12-23T07:55:40.391Z,17.50
2017-12-23T07:57:43.838Z,19.07
2017-12-23T07:59:48.015Z,19.53
2017-12-23T08:01:51.483Z,18.30
2017-12-23T08:03:54.923Z,17.90
2017-12-23T08:05:58.419Z,18.07
2017-12-23T08:08:01.905Z,19.83
2017-12-23T08:10:05.447Z,22.10
2017-12-23T08:12:09.031Z,22.03
2017-12-23T08:14:13.243Z,18.57
2017-12-23T08:16:16.719Z,18.47
2017-12-23T08:18:20.930Z,17.67
2017-12-23T08:20:24.409Z,16.57
2017-12-23T08:22:27.889Z,16.90
2017-12-23T08:24:31.301Z,16.40
2017-12-23T08:26:35.544Z,18.30
2017-12-23T08:28:39.773Z,17.10
2017-12-23T08:30:43.470Z,15.90
2017-12-23T08:32:46.988Z,16.37
2017-12-23T08:34:50.457Z,17.60
2017-12-23T08:36:53.899Z,17.23
2017-12-23T08:38:57.395Z,16.50
2017-12-23T08:41:00.839Z,18.03
2017-12-23T08:43:04.281Z,17.73
2017-12-23T08:45:07.828Z,18.37
2017-12-23T08:47:11.377Z,16.90
2017-12-23T08:49:14.854Z,18.60
2017-12-23T08:51:18.284Z,17.97
2017-12-23T08:53:22.463Z,16.43
2017-12-23T08:55:25.906Z,18.00
2017-12-23T08:57:29.331Z,16.70
2017-12-23T08:59:33.007Z,15.67
2017-12-23T09:01:36.504Z,17.30
2017-12-23T09:03:40.748Z,18.60
2017-12-23T09:05:44.224Z,18.70
2017-12-23T09:07:48.674Z,16.90
2017-12-23T09:09:53.118Z,14.90
2017-12-23T09:11:56.652Z,16.37
2017-12-23T09:14:00.110Z,17.30
2017-12-23T09:16:03.676Z,17.27
2017-12-23T09:18:07.571Z,16.93
2017-12-23T09:20:11.067Z,18.30
2017-12-23T09:22:14.579Z,18.57
2017-12-23T09:24:18.024Z,18.10
2017-12-23T09:26:21.570Z,17.53
2017-12-23T09:28:25.231Z,18.50
2017-12-23T09:30:28.688Z,18.47
2017-12-23T09:32:32.214Z,16.83
2017-12-23T09:34:35.675Z,17.27
2017-12-23T09:36:39.151Z,15.97
2017-12-23T09:38:42.593Z,17.00
2017-12-23T09:40:46.058Z,16.90
2017-12-23T09:42:50.307Z,18.20
2017-12-23T09:44:53.846Z,16.53
2017-12-23T09:46:57.357Z,16.77
2017-12-23T09:49:01.640Z,16.57
2017-12-23T09:51:05.120Z,16.73
2017-12-23T09:53:08.596Z,16.03
2017-12-23T09:55:13.282Z,16.63
2017-12-23T09:57:17.486Z,15.90
2017-12-23T09:59:21.837Z,16.10
2017-12-23T10:01:25.321Z,15.30
2017-12-23T10:03:29.126Z,15.80
2017-12-23T10:05:32.605Z,15.33
2017-12-23T10:07:36.305Z,14.30
2017-12-23T10:09:40.912Z,14.47
2017-12-23T10:11:44.361Z,15.47
2017-12-23T10:13:49.648Z,14.53
2017-12-23T10:15:53.276Z,16.40
2017-12-23T10:17:56.748Z,14.77
2017-12-23T10:20:00.394Z,14.40
2017-12-23T10:22:05.122Z,13.63
2017-12-23T10:24:09.516Z,13.00
2017-12-23T10:26:14.055Z,11.73
2017-12-23T10:28:17.528Z,13.30
2017-12-23T10:30:21.255Z,12.17
2017-12-23T10:32:27.610Z,12.40
2017-12-23T10:34:31.757Z,14.07
2017-12-23T10:36:35.188Z,10.37
2017-12-23T10:38:38.644Z,13.43
2017-12-23T10:40:42.125Z,13.10
2017-12-23T10:42:47.386Z,13.30
2017-12-23T10:44:52.492Z,13.63
2017-12-23T10:46:56.024Z,14.77
2017-12-23T10:49:00.195Z,13.30
2017-12-23T10:51:03.687Z,13.10
2017-12-23T10:53:07.103Z,11.57
2017-12-23T10:55:10.538Z,12.53
2017-12-23T10:57:13.972Z,11.80
2017-12-23T10:59:17.462Z,11.97
2017-12-23T11:01:20.905Z,11.70
2017-12-23T11:03:24.324Z,12.70
2017-12-23T11:05:27.742Z,12.40
2017-12-23T11:07:31.188Z,14.90
2017-12-23T11:09:34.670Z,14.20
2017-12-23T11:11:38.147Z,17.30
2017-12-23T11:13:41.573Z,14.13
2017-12-23T11:15:45.024Z,13.03
2017-12-23T11:17:48.487Z,12.40
2017-12-23T11:19:51.967Z,13.47
2017-12-23T11:21:55.677Z,12.00
2017-12-23T11:23:59.444Z,13.03
2017-12-23T11:26:03.757Z,11.13
2017-12-23T11:28:07.738Z,12.77
2017-12-23T11:30:11.238Z,11.13
2017-12-23T11:32:14.732Z,12.10
2017-12-23T11:34:18.200Z,11.33
2017-12-23T11:36:22.438Z,11.27
2017-12-23T11:38:25.878Z,14.13
2017-12-23T11:40:29.346Z,12.10
2017-12-23T11:42:33.078Z,12.43
2017-12-23T11:44:36.513Z,12.63
2017-12-23T11:46:39.938Z,12.53
2017-12-23T11:48:43.564Z,12.50
2017-12-23T11:50:47.191Z,11.67
2017-12-23T11:52:50.639Z,12.37
2017-12-23T11:54:54.270Z,12.47
2017-12-23T11:56:57.712Z,13.77
2017-12-23T11:59:02.115Z,13.43
2017-12-23T12:01:06.329Z,12.97
2017-12-23T12:03:09.871Z,13.70
2017-12-23T12:05:13.596Z,15.20
2017-12-23T12:07:18.019Z,12.70
2017-12-23T12:09:21.614Z,13.60
2017-12-23T12:11:25.171Z,13.03
2017-12-23T12:13:28.633Z,14.03
2017-12-23T12:15:32.201Z,13.50
2017-12-23T12:17:37.300Z,13.27
2017-12-23T12:19:41.943Z,13.30
2017-12-23T12:21:45.396Z,13.77
2017-12-23T12:23:50.116Z,13.53
2017-12-23T12:25:54.212Z,14.50
2017-12-23T12:27:58.148Z,33.00
2017-12-23T12:30:01.689Z,18.97
2017-12-23T12:32:05.676Z,17.10
2017-12-23T12:34:10.952Z,14.40
2017-12-23T12:36:15.643Z,13.87
2017-12-23T12:38:20.343Z,15.63
2017-12-23T12:40:24.402Z,16.07
2017-12-23T12:42:29.267Z,13.50
2017-12-23T12:44:33.618Z,13.73
2017-12-23T12:46:37.812Z,13.83
2017-12-23T12:48:43.708Z,11.57
2017-12-23T12:50:47.966Z,11.93
2017-12-23T12:52:51.980Z,13.03
2017-12-23T12:54:56.967Z,11.90
2017-12-23T12:57:01.717Z,9.97
2017-12-23T12:59:07.282Z,12.00
2017-12-23T13:01:11.784Z,11.03
2017-12-23T13:03:15.314Z,11.40
2017-12-23T13:05:18.877Z,9.20
2017-12-23T13:07:22.635Z,10.10
2017-12-23T13:09:26.113Z,10.90
2017-12-23T13:11:29.758Z,9.83
2017-12-23T13:13:33.197Z,10.90
2017-12-23T13:15:36.700Z,9.63
2017-12-23T13:17:40.146Z,10.63
2017-12-23T13:19:44.332Z,10.37
2017-12-23T13:21:48.898Z,11.13
2017-12-23T13:23:52.679Z,12.23
2017-12-23T13:25:56.437Z,11.40
2017-12-23T13:28:00.221Z,12.80
2017-12-23T13:30:04.108Z,11.67
2017-12-23T13:32:07.944Z,13.80
2017-12-23T13:34:11.591Z,13.77
2017-12-23T13:36:15.089Z,14.87
2017-12-23T13:38:18.561Z,14.00
2017-12-23T13:40:22.007Z,15.43
2017-12-23T13:42:27.416Z,14.37
2017-12-23T13:44:33.543Z,15.97
2017-12-23T13:46:37.178Z,14.93
2017-12-23T13:48:42.171Z,14.50
2017-12-23T13:50:45.751Z,15.17
2017-12-23T13:52:49.618Z,14.63
2017-12-23T13:54:53.626Z,15.80
2017-12-23T13:56:57.102Z,13.80
2017-12-23T13:59:00.706Z,15.77
2017-12-23T14:01:06.316Z,13.87
2017-12-23T14:03:11.788Z,14.00
2017-12-23T14:05:17.132Z,12.97
2017-12-23T14:07:23.427Z,12.70
2017-12-23T14:09:28.663Z,12.60
2017-12-23T14:11:32.774Z,13.93
2017-12-23T14:13:37.434Z,13.50
2017-12-23T14:15:42.269Z,12.77
2017-12-23T14:17:49.433Z,13.17
2017-12-23T14:19:53.348Z,11.37
2017-12-23T14:21:58.958Z,15.73
2017-12-23T14:24:02.862Z,10.90
2017-12-23T14:26:08.174Z,13.97
2017-12-23T14:28:11.630Z,13.60
2017-12-23T14:30:16.819Z,11.73
2017-12-23T14:32:21.079Z,12.80
2017-12-23T14:34:25.241Z,11.90
2017-12-23T14:36:28.667Z,9.90
2017-12-23T14:38:32.572Z,11.50
2017-12-23T14:40:36.070Z,9.90
2017-12-23T14:42:39.564Z,10.57
2017-12-23T14:44:43.128Z,11.20
2017-12-23T14:46:46.605Z,11.70
2017-12-23T14:48:50.109Z,12.40
2017-12-23T14:50:54.446Z,12.03
2017-12-23T14:52:58.710Z,11.70
2017-12-23T14:55:02.256Z,10.80
2017-12-23T14:57:05.690Z,10.57
2017-12-23T14:59:09.107Z,9.60
2017-12-23T15:01:12.584Z,10.00
2017-12-23T15:03:16.014Z,8.80
2017-12-23T15:05:20.515Z,9.57
2017-12-23T15:07:24.895Z,9.37
2017-12-23T15:09:30.047Z,9.20
2017-12-23T15:11:33.527Z,8.40
2017-12-23T15:13:37.066Z,9.77
2017-12-23T15:15:41.307Z,9.37
2017-12-23T15:17:44.829Z,9.13
2017-12-23T15:19:48.343Z,10.73
2017-12-23T15:21:51.843Z,10.13
2017-12-23T15:23:55.417Z,9.33
2017-12-23T15:25:58.816Z,8.33
2017-12-23T15:28:02.306Z,10.23
2017-12-23T15:30:06.275Z,12.93
2017-12-23T15:32:11.777Z,11.20
2017-12-23T15:34:15.199Z,8.43
2017-12-23T15:36:19.246Z,7.60
2017-12-23T15:38:22.710Z,7.50
2017-12-23T15:40:26.920Z,8.10
2017-12-23T15:42:31.305Z,8.30
2017-12-23T15:44:34.970Z,8.00
2017-12-23T15:46:39.637Z,8.80
2017-12-23T15:48:44.792Z,8.13
2017-12-23T15:50:49.030Z,8.17
2017-12-23T15:52:53.770Z,8.80
2017-12-23T15:54:57.226Z,7.67
2017-12-23T15:57:00.734Z,8.53
2017-12-23T15:59:04.238Z,7.70
2017-12-23T16:01:08.537Z,8.23
2017-12-23T16:03:12.817Z,7.70
2017-12-23T16:05:16.477Z,7.90
2017-12-23T16:07:21.766Z,7.97
2017-12-23T16:09:26.268Z,7.70
2017-12-23T16:11:30.103Z,8.00
2017-12-23T16:13:33.935Z,11.00
2017-12-23T16:15:37.659Z,11.63
2017-12-23T16:17:42.033Z,9.80
2017-12-23T16:19:45.810Z,8.90
2017-12-23T16:21:50.271Z,8.10
2017-12-23T16:23:54.215Z,9.20
2017-12-23T16:25:58.571Z,7.27
2017-12-23T16:28:02.144Z,8.27
2017-12-23T16:30:05.686Z,7.07
2017-12-23T16:32:09.243Z,7.30
2017-12-23T16:34:12.705Z,8.50
2017-12-23T16:36:16.176Z,7.33
2017-12-23T16:38:21.131Z,6.47
2017-12-23T16:40:28.309Z,6.90
2017-12-23T16:42:33.240Z,9.83
2017-12-23T16:44:38.471Z,7.70
2017-12-23T16:46:44.090Z,8.73
2017-12-23T16:48:47.719Z,6.97
2017-12-23T16:50:54.350Z,7.90
2017-12-23T16:52:58.844Z,6.53
2017-12-23T16:55:02.636Z,7.07
2017-12-23T16:57:07.345Z,7.10
2017-12-23T16:59:11.530Z,6.27
2017-12-23T17:01:15.131Z,6.67
2017-12-23T17:03:18.991Z,7.13
2017-12-23T17:05:22.405Z,7.30
2017-12-23T17:07:25.841Z,6.63
2017-12-23T17:09:29.258Z,7.00
2017-12-23T17:11:32.767Z,7.07
2017-12-23T17:13:36.229Z,7.70
2017-12-23T17:15:39.790Z,7.67
2017-12-23T17:17:43.628Z,7.30
2017-12-23T17:19:47.891Z,6.70
2017-12-23T17:21:51.599Z,8.17
2017-12-23T17:23:55.059Z,7.10
2017-12-23T17:25:58.569Z,8.60
2017-12-23T17:28:02.287Z,6.60
2017-12-23T17:30:18.571Z,6.77
2017-12-23T17:32:22.431Z,6.20
2017-12-23T17:34:27.694Z,5.10
2017-12-23T17:36:31.393Z,5.37
2017-12-23T17:38:35.070Z,6.50
2017-12-23T17:40:39.847Z,6.30
2017-12-23T17:42:43.671Z,6.30
2017-12-23T17:44:47.564Z,5.83
2017-12-23T17:46:52.365Z,5.33
2017-12-23T17:48:56.975Z,5.30
2017-12-23T17:51:00.412Z,6.03
2017-12-23T17:53:05.942Z,5.50
2017-12-23T17:55:09.396Z,5.30
2017-12-23T17:57:13.101Z,5.67
2017-12-23T17:59:17.147Z,6.30
2017-12-23T18:01:21.872Z,5.00
2017-12-23T18:03:28.126Z,5.60
2017-12-23T18:05:32.183Z,4.77
2017-12-23T18:07:35.618Z,5.93
2017-12-23T18:09:39.954Z,8.50
2017-12-23T18:11:43.886Z,6.67
2017-12-23T18:13:48.075Z,5.87
2017-12-23T18:15:51.559Z,7.37
2017-12-23T18:17:55.173Z,6.73
2017-12-23T18:19:58.881Z,6.03
2017-12-23T18:22:02.320Z,7.30
2017-12-23T18:24:07.840Z,5.80
2017-12-23T18:26:11.516Z,6.17
2017-12-23T18:28:15.168Z,5.47
2017-12-23T18:30:18.603Z,6.23
2017-12-23T18:32:22.751Z,6.60
2017-12-23T18:34:26.270Z,6.93
2017-12-23T18:36:29.788Z,6.10
2017-12-23T18:38:34.163Z,6.20
2017-12-23T18:40:38.484Z,6.40
2017-12-23T18:42:41.945Z,6.10
2017-12-23T18:44:46.290Z,6.20
2017-12-23T18:46:49.748Z,5.40
2017-12-23T18:48:53.954Z,5.80
2017-12-23T18:50:58.289Z,6.03
2017-12-23T18:53:02.472Z,5.20
2017-12-23T18:55:05.966Z,5.43
2017-12-23T18:57:10.250Z,5.90
2017-12-23T18:59:15.620Z,6.13
2017-12-23T19:01:19.903Z,5.13
2017-12-23T19:03:24.192Z,5.93
2017-12-23T19:05:27.854Z,6.00
2017-12-23T19:07:33.121Z,6.47
2017-12-23T19:09:38.344Z,7.37
2017-12-23T19:11:42.923Z,7.90
2017-12-23T19:13:46.326Z,7.50
2017-12-23T19:15:50.755Z,7.00
2017-12-23T19:17:54.284Z,6.30
2017-12-23T19:19:58.574Z,6.90
2017-12-23T19:22:01.999Z,6.70
2017-12-23T19:24:05.462Z,6.27
2017-12-23T19:26:09.675Z,8.60
2017-12-23T19:28:13.156Z,6.83
2017-12-23T19:30:16.645Z,8.57
2017-12-23T19:32:20.998Z,7.83
2017-12-23T19:34:25.259Z,5.23
2017-12-23T19:36:29.227Z,6.87
2017-12-23T19:38:32.872Z,6.60
2017-12-23T19:40:36.310Z,6.20
2017-12-23T19:42:39.786Z,6.20
2017-12-23T19:44:46.254Z,6.73
2017-12-23T19:46:49.663Z,7.07
2017-12-23T19:48:54.140Z,8.30
2017-12-23T19:50:59.436Z,6.27
2017-12-23T19:53:05.269Z,6.23
2017-12-23T19:55:08.809Z,6.33
2017-12-23T19:57:12.247Z,6.50
2017-12-23T19:59:15.708Z,6.20
2017-12-23T20:01:19.134Z,7.23
2017-12-23T20:03:22.553Z,4.80
2017-12-23T20:05:26.017Z,4.40
2017-12-23T20:07:30.177Z,4.47
2017-12-23T20:09:33.780Z,7.60
2017-12-23T20:11:39.194Z,6.40
2017-12-23T20:13:42.767Z,5.20
2017-12-23T20:15:46.229Z,4.90
2017-12-23T20:17:50.442Z,4.60
2017-12-23T20:19:54.798Z,4.23
2017-12-23T20:21:59.075Z,4.87
2017-12-23T20:24:03.269Z,4.47
2017-12-23T20:26:07.438Z,4.30
2017-12-23T20:28:10.966Z,5.00
2017-12-23T20:30:15.222Z,5.10
2017-12-23T20:32:18.688Z,7.40
2017-12-23T20:34:22.282Z,7.47
2017-12-23T20:36:25.713Z,7.03
2017-12-23T20:38:29.622Z,9.50
2017-12-23T20:40:33.135Z,11.23
2017-12-23T20:42:36.550Z,10.83
2017-12-23T20:44:40.123Z,11.27
2017-12-23T20:46:44.173Z,10.60
2017-12-23T20:48:47.829Z,9.00
2017-12-23T20:50:51.433Z,9.63
2017-12-23T20:52:55.929Z,11.10
2017-12-23T20:54:59.394Z,12.60
2017-12-23T20:57:03.759Z,10.03
2017-12-23T20:59:07.166Z,10.97
2017-12-23T21:01:10.637Z,10.20
2017-12-23T21:03:14.038Z,11.47
2017-12-23T21:05:17.549Z,14.17
2017-12-23T21:07:21.798Z,11.03
2017-12-23T21:09:25.259Z,10.67
2017-12-23T21:11:28.740Z,10.60
2017-12-23T21:13:32.164Z,10.40
2017-12-23T21:15:36.484Z,9.77
2017-12-23T21:17:40.774Z,8.77
2017-12-23T21:19:45.930Z,8.30
2017-12-23T21:21:49.407Z,9.57
2017-12-23T21:23:53.474Z,7.83
2017-12-23T21:25:56.920Z,7.40
2017-12-23T21:28:00.374Z,8.07
2017-12-23T21:30:03.859Z,5.33
2017-12-23T21:32:07.394Z,5.40
2017-12-23T21:34:10.858Z,6.17
2017-12-23T21:36:14.479Z,4.73
2017-12-23T21:38:18.740Z,4.97
2017-12-23T21:40:23.234Z,5.27
2017-12-23T21:42:27.425Z,6.00
2017-12-23T21:44:30.863Z,5.40
2017-12-23T21:46:34.310Z,5.67
2017-12-23T21:48:37.753Z,6.20
2017-12-23T21:50:41.909Z,6.97
2017-12-23T21:52:45.458Z,6.10
2017-12-23T21:54:48.923Z,5.37
2017-12-23T21:56:52.896Z,5.70
2017-12-23T21:58:57.469Z,6.90
2017-12-23T22:01:01.947Z,6.00
2017-12-23T22:03:05.464Z,8.20
2017-12-23T22:05:08.954Z,8.53
2017-12-23T22:07:13.162Z,8.60
2017-12-23T22:09:17.189Z,9.40
2017-12-23T22:11:21.620Z,9.40
2017-12-23T22:13:25.029Z,7.33
2017-12-23T22:15:28.717Z,9.07
2017-12-23T22:17:32.241Z,6.10
2017-12-23T22:19:35.827Z,6.33
2017-12-23T22:21:39.319Z,6.50
2017-12-23T22:23:42.824Z,6.47
2017-12-23T22:25:46.363Z,6.87
2017-12-23T22:27:50.815Z,6.33
2017-12-23T22:29:54.659Z,6.27
2017-12-23T22:31:58.133Z,6.13
2017-12-23T22:34:01.676Z,5.70
2017-12-23T22:36:05.118Z,5.17
2017-12-23T22:38:09.374Z,5.50
2017-12-23T22:40:12.929Z,5.70
2017-12-23T22:42:29.228Z,5.20
2017-12-23T22:44:32.659Z,6.03
2017-12-23T22:46:36.069Z,5.80
2017-12-23T22:48:39.514Z,7.10
2017-12-23T22:50:43.277Z,7.60
2017-12-23T22:52:47.634Z,7.47
2017-12-23T22:54:51.062Z,7.73
2017-12-23T22:56:54.506Z,8.27
2017-12-23T22:58:57.969Z,7.57
2017-12-23T23:01:02.157Z,8.43
2017-12-23T23:03:05.672Z,8.60
2017-12-23T23:05:09.970Z,7.83
2017-12-23T23:07:14.338Z,9.07
2017-12-23T23:09:17.773Z,8.43
2017-12-23T23:11:21.190Z,7.67
2017-12-23T23:13:25.359Z,9.23
2017-12-23T23:15:28.850Z,8.63
2017-12-23T23:17:32.291Z,9.57
2017-12-23T23:19:36.505Z,8.40
2017-12-23T23:21:40.682Z,8.73
2017-12-23T23:23:44.111Z,9.07
2017-12-23T23:25:47.554Z,9.13
2017-12-23T23:27:50.975Z,7.20
2017-12-23T23:29:55.216Z,7.70
2017-12-23T23:31:59.389Z,7.10
2017-12-23T23:34:02.789Z,6.60
2017-12-23T23:36:06.211Z,6.30
2017-12-23T23:38:10.386Z,6.27
2017-12-23T23:40:13.790Z,5.47
2017-12-23T23:42:17.259Z,7.70
2017-12-23T23:44:20.682Z,7.07
2017-12-23T23:46:24.109Z,7.47
2017-12-23T23:48:27.511Z,7.67
2017-12-23T23:50:30.991Z,8.10
2017-12-23T23:52:34.434Z,7.77
2017-12-23T23:54:37.826Z,8.97
2017-12-23T23:56:41.283Z,8.37
2017-12-23T23:58:44.675Z,9.50
